Time;durP1;ratioP1;P1;durP2;ratioP2;P2;SDS_P1;SDS_P2;PMS_P1;PMS_P2;Temp;Humidity;BMP_temperature;BMP_pressure;BME280_temperature;BME280_humidity;BME280_pressure;Samples;Min_cycle;Max_cycle;Signal;HPM_P1;HPM_P2
2022/06/13 00:01:32;;;;;;;2.90;2.22;;;;;;;20.05;61.79;100980.33;1752642;79;26647;-56
2022/06/13 00:04:01;;;;;;;6.42;2.30;;;;;;;20.03;61.81;100975.60;1746763;79;27459;-56
2022/06/13 00:06:29;;;;;;;4.03;2.55;;;;;;;19.96;61.94;100985.08;1760290;80;25883;-56
2022/06/13 00:08:56;;;;;;;5.15;2.20;;;;;;;19.95;61.80;100976.02;1758287;79;25767;-56
2022/06/13 00:11:25;;;;;;;4.53;2.65;;;;;;;19.92;61.87;100975.06;1765736;80;26070;-56
2022/06/13 00:13:55;;;;;;;7.28;2.30;;;;;;;19.91;61.85;100973.38;1758315;80;25760;-57
2022/06/13 00:16:22;;;;;;;4.70;2.80;;;;;;;19.86;62.19;100977.19;1761535;79;27654;-56
2022/06/13 00:18:50;;;;;;;3.00;2.50;;;;;;;19.76;62.47;100975.28;1756304;79;25809;-57
2022/06/13 00:21:22;;;;;;;11.55;2.30;;;;;;;19.73;62.43;100972.39;1761393;79;25808;-57
2022/06/13 00:23:50;;;;;;;3.22;2.27;;;;;;;19.74;62.56;100977.34;1749120;79;26114;-57
2022/06/13 00:26:21;;;;;;;7.50;2.75;;;;;;;19.69;62.74;100973.83;1746844;79;25815;-57
2022/06/13 00:28:50;;;;;;;5.33;2.30;;;;;;;19.63;63.06;100982.25;1761143;80;27461;-56
2022/06/13 00:31:18;;;;;;;6.58;2.40;;;;;;;19.58;63.03;100972.44;1774733;80;25956;-57
2022/06/13 00:33:45;;;;;;;5.55;2.35;;;;;;;19.54;63.05;100980.13;1754191;80;25797;-57
2022/06/13 00:36:14;;;;;;;3.62;2.65;;;;;;;19.55;62.94;100976.91;1770708;79;26091;-57
2022/06/13 00:38:41;;;;;;;2.58;2.30;;;;;;;19.57;62.88;100975.34;1771870;80;26161;-56
2022/06/13 00:41:13;;;;;;;6.40;2.55;;;;;;;19.61;62.71;100980.23;1781529;80;27470;-56
2022/06/13 00:43:44;;;;;;;5.33;2.25;;;;;;;19.66;62.71;100981.88;1759330;80;25712;-56
2022/06/13 00:46:24;;;;;;;5.15;2.77;;;;;;;19.64;62.62;100977.13;1769472;80;25873;-55
2022/06/13 00:48:57;;;;;;;3.95;2.60;;;;;;;19.61;62.65;100980.23;1711995;83;26939;-56
2022/06/13 00:51:24;;;;;;;4.47;2.47;;;;;;;19.55;62.79;100985.09;1690991;84;25834;-56
2022/06/13 00:53:53;;;;;;;7.28;2.58;;;;;;;19.52;62.84;100984.09;1715098;83;27595;-55
2022/06/13 00:56:24;;;;;;;6.37;2.83;;;;;;;19.52;62.85;100982.73;1711526;83;25811;-56
2022/06/13 00:58:59;;;;;;;9.00;2.60;;;;;;;19.49;62.86;100973.59;1712607;83;25505;-56
2022/06/13 01:01:29;;;;;;;8.23;2.55;;;;;;;19.47;62.83;100981.11;1712107;83;26131;-56
2022/06/13 01:03:58;;;;;;;4.90;2.72;;;;;;;19.42;62.92;100980.31;1697233;83;25794;-55
2022/06/13 01:06:28;;;;;;;9.23;2.65;;;;;;;19.39;63.10;100982.91;1700159;83;27465;-56
2022/06/13 01:08:54;;;;;;;9.45;2.70;;;;;;;19.33;63.34;100974.09;1694794;83;25846;-55
2022/06/13 01:11:24;;;;;;;5.50;2.75;;;;;;;19.32;63.37;100979.22;1699199;83;25807;-56
2022/06/13 01:14:19;;;;;;;4.28;2.40;;;;;;;19.33;63.52;100980.92;1694746;83;26778;-55
2022/06/13 01:17:03;;;;;;;9.33;3.30;;;;;;;19.34;63.32;100970.88;1682367;84;25945;-56
2022/06/13 01:19:54;;;;;;;;;;;;;;;19.28;63.36;100968.38;1688631;83;26740;-56
2022/06/13 01:22:58;;;;;;;3.35;2.47;;;;;;;19.25;63.55;100971.47;1696466;83;25748;-56
2022/06/13 01:25:59;;;;;;;4.35;2.27;;;;;;;19.21;63.74;100976.45;1706272;83;25757;-56
2022/06/13 01:29:02;;;;;;;7.42;2.55;;;;;;;19.19;63.63;100979.05;1681756;83;26115;-56
2022/06/13 01:31:58;;;;;;;6.55;2.58;;;;;;;19.15;63.54;100984.04;1684043;85;25826;-56
2022/06/13 01:34:57;;;;;;;5.42;2.58;;;;;;;19.14;63.87;100985.07;1668991;84;27558;-56
2022/06/13 01:37:42;;;;;;;4.15;2.40;;;;;;;19.13;63.84;100990.72;1684421;85;25752;-56
2022/06/13 01:40:46;;;;;;;6.15;2.95;;;;;;;19.11;63.84;100985.97;1666648;85;25774;-56
2022/06/13 01:43:16;;;;;;;;;;;;;;;19.11;63.92;100990.05;1685813;83;26125;-56
2022/06/13 01:46:03;;;;;;;8.43;3.02;;;;;;;19.10;64.24;100993.81;1683398;83;26236;-55
2022/06/13 01:49:01;;;;;;;6.53;2.62;;;;;;;19.05;63.95;100988.92;1685971;83;27480;-57
2022/06/13 01:51:43;;;;;;;4.05;3.17;;;;;;;19.04;64.27;100995.41;1763895;79;25866;-56
2022/06/13 01:54:18;;;;;;;3.47;2.72;;;;;;;18.98;64.37;100984.72;1762433;79;26206;-56
2022/06/13 01:56:59;;;;;;;4.25;3.17;;;;;;;18.92;64.55;100985.45;1754665;79;28136;-56
2022/06/13 01:59:57;;;;;;;4.90;3.00;;;;;;;18.89;64.58;100987.17;1767330;79;25909;-56
2022/06/13 02:02:41;;;;;;;6.35;3.20;;;;;;;18.92;64.45;100986.81;1769459;79;28286;-56
2022/06/13 02:05:37;;;;;;;4.72;2.92;;;;;;;18.92;64.55;100984.09;1754301;79;25708;-55
2022/06/13 02:08:15;;;;;;;5.08;2.90;;;;;;;18.89;65.03;100982.58;1725003;80;25869;-56
2022/06/13 02:10:50;;;;;;;5.10;3.20;;;;;;;18.86;64.89;100984.84;1726190;80;26815;-56
2022/06/13 02:13:25;;;;;;;6.45;3.05;;;;;;;18.91;64.71;100984.61;1727064;80;25811;-56
2022/06/13 02:15:55;;;;;;;5.42;3.05;;;;;;;18.94;64.89;100987.51;1727505;80;27574;-55
2022/06/13 02:18:30;;;;;;;8.28;3.12;;;;;;;18.88;65.07;100982.75;1725870;80;25857;-56
2022/06/13 02:21:06;;;;;;;5.62;3.30;;;;;;;18.84;65.42;100985.53;1726715;80;25917;-55
2022/06/13 02:23:38;;;;;;;9.68;3.45;;;;;;;18.74;65.68;100988.00;1700348;80;26086;-56
2022/06/13 02:26:13;;;;;;;6.28;2.95;;;;;;;18.72;65.81;100996.05;1724424;80;25887;-56
2022/06/13 02:28:54;;;;;;;4.95;3.05;;;;;;;18.72;65.57;100998.23;1727017;80;27472;-55
2022/06/13 02:31:29;;;;;;;6.62;2.70;;;;;;;18.77;65.41;101002.63;1725027;81;25972;-57
2022/06/13 02:34:04;;;;;;;7.50;3.50;;;;;;;18.80;65.37;101001.91;1725176;82;25818;-57
2022/06/13 02:36:56;;;;;;;6.00;2.95;;;;;;;18.86;65.11;101010.73;1726769;81;25882;-56
2022/06/13 02:39:31;;;;;;;5.50;3.27;;;;;;;18.83;65.12;101014.65;1739990;80;25760;-56
2022/06/13 02:42:18;;;;;;;4.95;3.50;;;;;;;18.79;65.12;101010.62;1772858;80;27612;-55
2022/06/13 02:44:53;;;;;;;9.60;3.08;;;;;;;18.77;65.21;101006.72;1747247;79;25868;-56
2022/06/13 02:47:43;;;;;;;7.10;3.17;;;;;;;18.77;65.19;101009.45;1756904;80;26340;-56
2022/06/13 02:50:19;;;;;;;10.43;3.50;;;;;;;18.76;65.05;101011.84;1765931;80;26180;-56
2022/06/13 02:52:57;;;;;;;6.92;3.50;;;;;;;18.78;64.98;101008.39;1775502;80;25801;-56
2022/06/13 02:55:25;;;;;;;5.90;3.00;;;;;;;18.80;64.88;101011.45;1770942;79;28715;-56
2022/06/13 02:58:00;;;;;;;8.30;3.40;;;;;;;18.81;64.72;101006.33;1768888;80;25813;-56
2022/06/13 03:00:50;;;;;;;5.53;3.10;;;;;;;18.84;64.65;101005.97;1768453;79;25771;-56
2022/06/13 03:03:31;;;;;;;10.10;3.25;;;;;;;18.82;64.63;101006.17;1761058;79;26872;-56
2022/06/13 03:06:15;;;;;;;11.35;3.33;;;;;;;18.85;64.50;101000.86;1758084;79;25855;-56
2022/06/13 03:08:50;;;;;;;7.97;3.30;;;;;;;18.93;64.57;101007.09;1764508;80;27580;-56
2022/06/13 03:11:31;;;;;;;6.58;3.17;;;;;;;19.02;64.53;101007.87;1753351;80;25474;-56
2022/06/13 03:14:21;;;;;;;7.05;3.33;;;;;;;19.07;64.44;101008.67;1747503;80;25771;-56
2022/06/13 03:17:23;;;;;;;7.45;2.87;;;;;;;19.10;64.37;101013.73;1778442;80;26105;-56
2022/06/13 03:20:05;;;;;;;4.95;2.98;;;;;;;19.11;64.07;101018.16;1759139;80;25512;-56
2022/06/13 03:22:55;;;;;;;7.50;2.95;;;;;;;19.15;64.07;101022.22;1748559;80;27619;-57
2022/06/13 03:25:52;;;;;;;7.62;2.70;;;;;;;19.17;63.91;101018.80;1757496;79;25738;-55
2022/06/13 03:28:27;;;;;;;7.03;2.70;;;;;;;19.14;63.89;101019.69;1778721;80;25845;-56
2022/06/13 03:31:14;;;;;;;7.50;2.87;;;;;;;19.12;63.69;101013.56;1713327;82;26193;-56
2022/06/13 03:33:45;;;;;;;9.48;3.33;;;;;;;19.09;63.82;101018.88;1698612;83;25484;-55
2022/06/13 03:36:43;;;;;;;4.85;2.83;;;;;;;19.09;63.80;101010.70;1707446;82;27480;-56
2022/06/13 03:39:27;;;;;;;8.40;3.10;;;;;;;19.14;63.64;101018.33;1709923;82;26239;-56
2022/06/13 03:42:09;;;;;;;9.20;3.30;;;;;;;19.12;63.39;101021.22;1699833;83;25747;-56
2022/06/13 03:44:53;;;;;;;5.58;3.10;;;;;;;19.11;63.65;101024.14;1737971;80;26109;-56
2022/06/13 03:47:34;;;;;;;4.87;2.85;;;;;;;19.10;63.52;101016.98;1717875;82;25733;-56
2022/06/13 03:50:29;;;;;;;9.90;2.70;;;;;;;19.12;63.66;101024.47;1706922;83;28238;-55
2022/06/13 03:53:19;;;;;;;5.45;2.80;;;;;;;19.17;63.69;101026.11;1733305;81;25518;-56
2022/06/13 03:55:53;;;;;;;7.47;3.02;;;;;;;19.13;63.32;101020.72;1733868;81;25795;-56
2022/06/13 03:58:56;;;;;;;6.25;2.90;;;;;;;19.06;63.50;101027.42;1746385;81;26149;-55
2022/06/13 04:01:46;;;;;;;4.65;3.00;;;;;;;19.01;63.36;101024.39;1666466;81;25780;-55
2022/06/13 04:04:33;;;;;;;5.78;3.08;;;;;;;19.02;63.96;101032.41;1735519;81;27504;-56
2022/06/13 04:07:01;;;;;;;6.30;2.83;;;;;;;19.00;63.85;101031.73;1724611;81;25696;-56
2022/06/13 04:09:36;;;;;;;5.75;2.77;;;;;;;18.99;63.95;101026.48;1746170;81;25736;-56
2022/06/13 04:12:23;;;;;;;6.95;2.90;;;;;;;18.98;63.77;101028.34;1741427;81;26168;-55
2022/06/13 04:15:01;;;;;;;4.62;2.95;;;;;;;19.06;63.97;101026.89;1744160;81;25739;-55
2022/06/13 04:17:52;;;;;;;4.92;2.60;;;;;;;19.16;64.39;101025.27;1728963;81;27590;-56
2022/06/13 04:20:50;;;;;;;4.28;2.42;;;;;;;19.22;63.99;101026.41;1726623;81;25912;-57
2022/06/13 04:23:46;;;;;;;5.42;2.98;;;;;;;19.25;63.67;101026.02;1734469;81;25861;-56
2022/06/13 04:26:21;;;;;;;5.67;2.77;;;;;;;19.22;63.25;101034.59;1750440;81;26204;-55
2022/06/13 04:29:08;;;;;;;10.72;2.83;;;;;;;19.21;63.39;101025.55;1740237;80;25927;-57
2022/06/13 04:31:37;;;;;;;4.90;2.75;;;;;;;19.23;63.09;101026.72;1754904;80;27474;-56
2022/06/13 04:34:21;;;;;;;4.37;2.87;;;;;;;19.23;62.81;101023.98;1776387;80;25755;-55
2022/06/13 04:36:50;;;;;;;3.98;3.20;;;;;;;19.18;62.96;101020.48;1771324;80;25754;-56
2022/06/13 04:39:21;;;;;;;4.00;2.83;;;;;;;19.16;63.11;101019.82;1769465;80;26416;-56
2022/06/13 04:41:51;;;;;;;6.72;2.80;;;;;;;19.18;63.26;101016.90;1763993;80;25949;-56
2022/06/13 04:44:22;;;;;;;3.40;2.52;;;;;;;19.16;63.21;101018.45;1754087;80;27467;-56
2022/06/13 04:46:51;;;;;;;4.28;2.55;;;;;;;19.11;62.97;101024.14;1753781;80;25825;-56
2022/06/13 04:49:35;;;;;;;6.60;2.77;;;;;;;19.11;63.46;101021.41;1759080;80;25523;-56
2022/06/13 04:52:13;;;;;;;;;;;;;;;19.10;63.35;101030.63;1779981;80;26094;-56
2022/06/13 04:54:47;;;;;;;5.85;3.00;;;;;;;19.07;63.66;101034.58;1760553;79;25803;-56
2022/06/13 04:57:18;;;;;;;4.72;2.72;;;;;;;19.05;63.48;101027.92;1754191;79;28211;-56
2022/06/13 04:59:46;;;;;;;8.18;2.65;;;;;;;19.07;63.29;101025.86;1755318;79;26342;-56
2022/06/13 05:02:20;;;;;;;5.08;2.55;;;;;;;19.11;63.41;101021.41;1773569;80;25941;-56
2022/06/13 05:04:48;;;;;;;2.47;1.80;;;;;;;19.17;62.95;101024.25;1756595;79;26844;-56
2022/06/13 05:07:22;;;;;;;5.35;2.10;;;;;;;19.23;62.72;101018.53;1767470;80;25520;-56
2022/06/13 05:10:00;;;;;;;9.35;2.58;;;;;;;19.31;62.55;101025.29;1759573;80;27491;-56
2022/06/13 05:12:41;;;;;;;3.95;2.30;;;;;;;19.39;62.53;101027.92;1770764;80;25804;-57
2022/06/13 05:15:24;;;;;;;15.03;2.72;;;;;;;19.51;62.37;101022.83;1779958;80;25696;-56
2022/06/13 05:18:11;;;;;;;2.80;2.15;;;;;;;19.59;61.71;101016.94;1759681;80;26949;-57
2022/06/13 05:21:29;;;;;;;6.90;2.40;;;;;;;19.63;61.72;101015.53;1719090;80;25772;-57
2022/06/13 05:24:26;;;;;;;3.50;2.27;;;;;;;19.67;61.56;101017.69;1754878;79;27379;-56
2022/06/13 05:26:53;;;;;;;3.45;2.30;;;;;;;19.65;61.03;101006.11;1760612;79;25770;-56
2022/06/13 05:29:19;;;;;;;4.90;2.37;;;;;;;19.66;61.09;101011.91;1759109;79;25864;-56
2022/06/13 05:31:47;;;;;;;5.72;2.33;;;;;;;19.71;61.04;101010.80;1712558;82;26574;-56
2022/06/13 05:34:19;;;;;;;6.97;2.67;;;;;;;19.76;61.29;101007.50;1706284;82;25827;-56
2022/06/13 05:36:46;;;;;;;3.52;2.35;;;;;;;19.84;61.32;101015.57;1698910;83;30393;-56
2022/06/13 05:39:13;;;;;;;3.87;2.33;;;;;;;19.90;61.17;101010.43;1701471;83;25939;-56
2022/06/13 05:41:40;;;;;;;4.80;2.17;;;;;;;19.92;60.92;101005.09;1697304;83;25755;-58
2022/06/13 05:44:09;;;;;;;4.33;2.52;;;;;;;19.99;61.07;101003.81;1700289;83;26275;-56
2022/06/13 05:46:38;;;;;;;10.30;2.27;;;;;;;20.01;60.43;101008.04;1662984;83;25818;-56
2022/06/13 05:49:07;;;;;;;8.18;2.20;;;;;;;20.04;60.42;101001.34;1687680;83;27583;-55
2022/06/13 05:51:34;;;;;;;11.20;2.50;;;;;;;20.08;60.35;100996.33;1770821;80;25744;-57
2022/06/13 05:54:01;;;;;;;10.68;2.87;;;;;;;20.11;59.83;101000.88;1767175;80;25796;-56
2022/06/13 05:56:28;;;;;;;5.78;2.10;;;;;;;20.18;59.99;100998.23;1711282;82;26110;-56
2022/06/13 05:58:55;;;;;;;6.12;2.55;;;;;;;20.25;60.04;101002.41;1706282;82;25739;-55
2022/06/13 06:01:23;;;;;;;5.55;2.37;;;;;;;20.32;60.12;101002.77;1707852;83;27484;-55
2022/06/13 06:03:50;;;;;;;8.60;2.72;;;;;;;20.38;59.76;101007.98;1709561;82;25790;-55
2022/06/13 06:06:24;;;;;;;8.00;3.22;;;;;;;20.45;59.81;101006.69;1711432;82;25716;-56
2022/06/13 06:08:54;;;;;;;5.92;3.95;;;;;;;20.52;59.52;101004.85;1697254;83;26998;-55
2022/06/13 06:11:25;;;;;;;4.60;2.90;;;;;;;20.58;59.22;101003.22;1697128;83;25753;-56
2022/06/13 06:13:52;;;;;;;2.62;2.40;;;;;;;20.65;59.37;100997.29;1704502;83;27473;-56
2022/06/13 06:16:23;;;;;;;5.08;2.42;;;;;;;20.73;59.38;100994.94;1687074;83;25764;-56
2022/06/13 06:18:50;;;;;;;7.12;2.42;;;;;;;20.78;58.75;100997.44;1753779;80;25777;-56
2022/06/13 06:21:17;;;;;;;8.38;3.85;;;;;;;20.83;58.66;100995.98;1708015;83;25979;-56
2022/06/13 06:23:44;;;;;;;10.30;2.67;;;;;;;20.90;58.45;100996.37;1712282;83;25800;-57
2022/06/13 06:26:14;;;;;;;3.30;2.35;;;;;;;20.97;58.07;101003.77;1711652;82;27530;-57
2022/06/13 06:28:41;;;;;;;6.90;2.22;;;;;;;21.03;57.92;100996.12;1708901;82;26208;-57
2022/06/13 06:31:10;;;;;;;6.20;2.50;;;;;;;21.11;58.13;100995.45;1758257;80;25776;-56
2022/06/13 06:33:37;;;;;;;7.00;2.45;;;;;;;21.20;58.43;101000.76;1710065;83;26112;-56
2022/06/13 06:36:04;;;;;;;3.12;2.10;;;;;;;21.24;56.84;100987.02;1709904;82;25907;-55
2022/06/13 06:38:31;;;;;;;5.28;1.72;;;;;;;21.32;57.31;100988.22;1707688;82;27462;-56
2022/06/13 06:40:58;;;;;;;6.83;2.30;;;;;;;21.41;57.77;100989.73;1710271;82;27242;-56
2022/06/13 06:43:25;;;;;;;5.85;2.15;;;;;;;21.52;57.79;100988.81;1697049;83;25769;-56
2022/06/13 06:45:52;;;;;;;8.35;2.30;;;;;;;21.62;57.69;100989.31;1694353;83;26204;-56
2022/06/13 06:48:22;;;;;;;3.15;1.92;;;;;;;21.73;57.86;100987.91;1684722;84;25833;-56
2022/06/13 06:50:51;;;;;;;10.43;2.58;;;;;;;21.83;58.02;100986.96;1683581;84;27334;-56
2022/06/13 06:53:22;;;;;;;3.47;2.70;;;;;;;21.98;57.95;100988.70;1680952;84;25486;-56
2022/06/13 07:01:22;;;;;;;4.12;1.82;;;;;;;22.23;55.75;100975.79;1689666;83;26395;-56
2022/06/13 07:03:49;;;;;;;10.90;2.20;;;;;;;22.29;55.39;100974.94;1685274;83;28318;-56
2022/06/13 07:06:17;;;;;;;4.25;1.62;;;;;;;22.36;55.11;100975.28;1703309;83;25792;-56
2022/06/13 07:08:44;;;;;;;5.40;2.12;;;;;;;22.50;55.41;100973.96;1706129;83;25837;-56
2022/06/13 07:14:08;;;;;;;4.50;2.00;;;;;;;22.74;54.70;100960.11;1752673;80;27223;-57
2022/06/13 07:16:35;;;;;;;3.08;1.70;;;;;;;22.86;53.99;100956.73;1754219;80;27440;-56
2022/06/13 07:19:02;;;;;;;6.28;1.95;;;;;;;22.95;53.99;100957.65;1767147;80;25863;-56
2022/06/13 07:21:29;;;;;;;2.98;1.90;;;;;;;23.04;54.08;100958.28;1755084;80;25739;-57
2022/06/13 07:23:57;;;;;;;3.35;2.00;;;;;;;23.13;53.41;100958.36;1768390;80;26075;-56
2022/06/13 07:26:24;;;;;;;2.98;1.87;;;;;;;23.20;52.64;100954.77;1769422;80;25853;-56
2022/06/13 07:28:51;;;;;;;9.45;2.37;;;;;;;23.27;52.50;100960.56;1771639;80;27444;-57
2022/06/13 07:31:22;;;;;;;6.62;2.17;;;;;;;23.36;52.67;100956.20;1767802;80;25834;-56
2022/06/13 07:33:50;;;;;;;2.35;1.82;;;;;;;23.41;52.64;100952.27;1765168;80;25822;-57
2022/06/13 07:36:19;;;;;;;13.88;2.17;;;;;;;23.48;52.30;100953.11;1771916;79;26119;-56
2022/06/13 07:38:48;;;;;;;15.90;2.08;;;;;;;23.58;52.49;100952.63;1759168;80;26153;-56
2022/06/13 07:41:20;;;;;;;7.95;2.80;;;;;;;23.70;51.36;100948.14;1754397;79;28368;-56
2022/06/13 07:43:51;;;;;;;4.58;2.33;;;;;;;23.83;51.40;100947.23;1758635;80;26031;-56
2022/06/13 07:46:19;;;;;;;2.22;1.90;;;;;;;23.92;50.98;100954.66;1754387;80;25808;-56
2022/06/13 07:48:48;;;;;;;9.40;1.98;;;;;;;23.95;50.62;100949.28;1756245;80;26084;-56
2022/06/13 07:51:14;;;;;;;8.28;2.05;;;;;;;24.01;50.95;100949.79;1758316;79;25792;-56
2022/06/13 07:53:42;;;;;;;3.40;1.82;;;;;;;24.12;50.29;100949.05;1764417;80;27537;-56
2022/06/13 07:56:16;;;;;;;6.05;2.85;;;;;;;24.23;49.51;100941.47;1766083;80;25978;-57
2022/06/13 07:58:46;;;;;;;2.98;1.45;;;;;;;24.32;49.77;100946.69;1765207;80;25529;-57
2022/06/13 08:01:13;;;;;;;5.30;2.00;;;;;;;24.35;48.64;100944.34;1766428;79;26163;-57
2022/06/13 08:03:41;;;;;;;4.10;1.75;;;;;;;24.44;47.93;100946.80;1762212;79;25761;-56
2022/06/13 08:06:10;;;;;;;4.67;1.42;;;;;;;24.53;48.15;100949.58;1771593;80;27436;-56
2022/06/13 08:08:40;;;;;;;11.20;1.67;;;;;;;24.55;47.63;100943.33;1767340;80;25936;-56
2022/06/13 08:11:09;;;;;;;8.40;1.75;;;;;;;24.62;47.42;100946.86;1771508;80;25552;-55
2022/06/13 08:13:39;;;;;;;12.20;2.30;;;;;;;24.69;47.36;100940.81;1743086;79;27023;-55
2022/06/13 08:16:08;;;;;;;4.65;2.10;;;;;;;24.83;47.26;100940.66;1761635;80;25890;-56
2022/06/13 08:18:37;;;;;;;7.85;1.65;;;;;;;24.94;46.69;100943.19;1764883;79;27462;-56
2022/06/13 08:21:05;;;;;;;2.65;1.60;;;;;;;25.05;45.99;100942.99;1757860;79;26421;-56
2022/06/13 08:23:32;;;;;;;2.85;1.50;;;;;;;25.13;45.50;100938.56;1759555;80;25945;-56
2022/06/13 08:26:00;;;;;;;6.25;2.08;;;;;;;25.18;44.53;100942.83;1761526;79;26230;-56
2022/06/13 08:28:28;;;;;;;6.42;1.80;;;;;;;25.25;44.69;100934.49;1759414;79;25799;-56
2022/06/13 08:31:01;;;;;;;6.25;1.60;;;;;;;25.38;44.67;100937.06;1759460;80;27466;-56
2022/06/13 08:33:29;;;;;;;6.10;1.50;;;;;;;25.49;44.41;100932.75;1771996;80;25830;-56
2022/06/13 08:35:55;;;;;;;7.42;1.75;;;;;;;25.64;44.11;100933.69;1781604;80;26334;-56
2022/06/13 08:38:23;;;;;;;3.95;1.55;;;;;;;25.75;42.89;100927.39;1774818;80;26135;-56
2022/06/13 08:41:14;;;;;;;4.10;1.55;;;;;;;25.84;42.37;100936.19;1766472;80;25828;-56
2022/06/13 08:44:18;;;;;;;2.25;1.72;;;;;;;25.91;42.74;100926.41;1754624;80;27472;-56
2022/06/13 08:47:16;;;;;;;6.12;1.60;;;;;;;26.06;41.92;100925.46;1769474;80;25808;-56
2022/06/13 08:50:10;;;;;;;5.35;1.22;;;;;;;26.18;42.29;100913.11;1776508;80;25751;-56
2022/06/13 08:52:45;;;;;;;2.55;1.50;;;;;;;26.43;41.25;100918.94;1767600;80;26415;-56
2022/06/13 08:55:41;;;;;;;8.78;1.60;;;;;;;26.69;40.09;100920.92;1778801;80;25734;-57
2022/06/13 08:58:19;;;;;;;4.47;1.60;;;;;;;26.79;40.78;100924.51;1770855;79;27480;-57
2022/06/13 09:00:56;;;;;;;4.35;1.52;;;;;;;26.88;38.54;100916.16;1776432;80;25466;-57
2022/06/13 09:03:31;;;;;;;6.53;1.42;;;;;;;26.91;38.40;100910.13;1773478;80;25878;-56
2022/06/13 09:06:07;;;;;;;3.87;1.40;;;;;;;27.15;38.69;100912.87;1744071;80;26183;-57
2022/06/13 09:09:03;;;;;;;2.40;1.25;;;;;;;27.32;38.24;100914.30;1763617;79;25743;-56
2022/06/13 09:11:50;;;;;;;2.95;1.65;;;;;;;27.49;36.74;100904.19;1719714;79;27747;-57
2022/06/13 09:14:37;;;;;;;9.08;1.60;;;;;;;27.69;36.89;100908.43;1770883;79;25870;-56
2022/06/13 09:17:22;;;;;;;5.22;1.50;;;;;;;27.91;36.97;100910.49;1760335;80;25819;-56
2022/06/13 09:20:20;;;;;;;3.02;1.27;;;;;;;28.11;36.34;100901.17;1755028;79;26109;-56
2022/06/13 09:23:14;;;;;;;13.38;2.15;;;;;;;28.31;35.15;100901.78;1754108;79;25697;-56
2022/06/13 09:25:47;;;;;;;3.90;1.57;;;;;;;28.52;35.62;100902.38;1763719;79;27464;-57
2022/06/13 09:28:24;;;;;;;12.53;1.80;;;;;;;28.72;36.27;100897.74;1754549;79;25775;-56
2022/06/13 09:31:32;;;;;;;4.08;1.92;;;;;;;28.96;35.42;100900.80;1759167;80;25773;-56
2022/06/13 09:34:10;;;;;;;3.83;1.57;;;;;;;29.23;34.70;100888.98;1709819;82;26116;-56
2022/06/13 09:36:42;;;;;;;5.10;2.77;;;;;;;29.54;34.60;100892.11;1765021;80;25875;-57
2022/06/13 09:39:12;;;;;;;6.47;1.75;;;;;;;29.77;34.20;100900.10;1781022;80;27946;-56
2022/06/13 09:41:59;;;;;;;3.87;1.22;;;;;;;30.02;34.01;100897.86;1710833;82;26173;-57
2022/06/13 09:44:47;;;;;;;7.17;1.90;;;;;;;30.31;32.79;100890.61;1708231;82;25868;-57
2022/06/13 09:47:47;;;;;;;6.70;1.27;;;;;;;30.52;31.95;100894.39;1697171;83;26110;-56
2022/06/13 09:50:43;;;;;;;7.20;2.20;;;;;;;30.67;32.90;100893.09;1697436;83;25840;-57
2022/06/13 09:53:34;;;;;;;4.67;1.27;;;;;;;31.01;31.29;100894.13;1664007;85;27550;-56
2022/06/13 09:56:09;;;;;;;9.58;1.50;;;;;;;31.36;31.80;100891.22;1654402;85;25920;-57
2022/06/13 09:59:13;;;;;;;10.30;1.27;;;;;;;31.65;31.91;100889.31;1672940;84;25754;-57
2022/06/13 10:02:00;;;;;;;2.75;1.30;;;;;;;31.94;30.72;100888.83;1674818;84;26122;-56
2022/06/13 10:04:51;;;;;;;3.85;1.30;;;;;;;32.15;30.50;100881.31;1669034;85;25957;-56
2022/06/13 10:07:37;;;;;;;5.80;1.30;;;;;;;32.50;29.62;100879.38;1669168;85;27482;-56
2022/06/13 10:10:33;;;;;;;6.83;1.67;;;;;;;32.83;29.80;100882.64;1673202;84;25857;-56
2022/06/13 10:13:16;;;;;;;1.45;1.00;;;;;;;33.23;29.27;100874.66;1729807;81;25738;-56
2022/06/13 10:15:54;;;;;;;3.08;1.20;;;;;;;33.66;28.29;100873.31;1724569;81;26302;-57
2022/06/13 10:19:11;;;;;;;4.08;1.22;;;;;;;33.88;27.35;100867.31;1724633;81;25835;-56
2022/06/13 10:21:49;;;;;;;8.85;1.80;;;;;;;34.26;26.90;100869.48;1713578;81;27650;-57
2022/06/13 10:24:36;;;;;;;5.95;1.10;;;;;;;34.75;26.51;100857.80;1725953;81;25796;-57
2022/06/13 10:27:30;;;;;;;2.85;2.02;;;;;;;35.11;24.86;100855.98;1664925;85;25809;-56
2022/06/13 10:30:18;;;;;;;1.90;0.78;;;;;;;35.50;25.07;100857.69;1729723;81;26292;-56
2022/06/13 10:33:16;;;;;;;10.53;1.45;;;;;;;35.72;24.15;100857.65;1748401;81;25815;-56
2022/06/13 10:36:05;;;;;;;2.20;1.30;;;;;;;36.32;25.05;100853.27;1719188;81;27545;-56
2022/06/13 10:39:09;;;;;;;2.87;1.00;;;;;;;36.63;24.42;100845.12;1724067;81;25807;-57
2022/06/13 10:41:43;;;;;;;10.55;1.32;;;;;;;37.07;24.63;100847.59;1728017;81;25910;-57
2022/06/13 10:44:15;;;;;;;7.53;1.50;;;;;;;37.38;23.54;100842.14;1724568;81;26117;-56
2022/06/13 10:46:50;;;;;;;8.18;1.37;;;;;;;37.64;22.76;100835.91;1742896;80;25794;-57
2022/06/13 10:49:26;;;;;;;4.40;1.22;;;;;;;37.54;21.92;100828.58;1754716;80;27405;-56
2022/06/13 10:51:57;;;;;;;3.33;1.22;;;;;;;37.34;22.70;100826.23;1754737;79;25451;-57
2022/06/13 10:54:32;;;;;;;8.03;1.47;;;;;;;37.38;23.70;100826.71;1764574;79;25811;-57
2022/06/13 10:57:28;;;;;;;9.00;1.27;;;;;;;37.74;23.24;100825.01;1770832;80;26094;-57
2022/06/13 11:00:20;;;;;;;4.67;1.57;;;;;;;38.00;22.94;100823.78;1727796;80;25705;-57
2022/06/13 11:02:49;;;;;;;3.15;1.47;;;;;;;38.47;22.90;100825.35;1727320;82;27479;-57
2022/06/13 11:05:21;;;;;;;2.02;0.93;;;;;;;39.14;21.75;100807.89;1727865;81;25902;-58
2022/06/13 11:07:54;;;;;;;3.80;1.25;;;;;;;39.48;21.41;100805.44;1707357;81;34814;-57
2022/06/13 11:10:35;;;;;;;4.15;1.27;;;;;;;39.74;20.50;100799.81;1717105;82;26133;-57
2022/06/13 11:13:07;;;;;;;4.05;1.45;;;;;;;39.84;20.50;100798.05;1697007;82;25903;-56
2022/06/13 11:24:55;;;;;;;20.10;2.00;;;;;;;40.01;20.62;100783.08;1711552;82;26023;-57
2022/06/13 11:27:41;;;;;;;3.70;1.30;;;;;;;40.60;19.50;100785.77;1709427;81;25917;-57
2022/06/13 11:30:40;;;;;;;11.55;1.95;;;;;;;40.96;20.14;100787.75;1706525;82;27547;-56
2022/06/13 11:33:34;;;;;;;4.95;1.25;;;;;;;41.50;18.97;100780.53;1696929;83;25569;-56
2022/06/13 11:36:18;;;;;;;3.45;1.30;;;;;;;41.77;19.29;100778.48;1701314;83;25816;-57
2022/06/13 11:39:02;;;;;;;8.98;1.85;;;;;;;42.29;19.03;100768.34;1687946;83;26115;-57
2022/06/13 11:41:45;;;;;;;10.65;1.20;;;;;;;42.71;17.81;100768.08;1686620;83;25815;-57
2022/06/13 11:44:22;;;;;;;5.60;1.30;;;;;;;42.30;17.37;100765.14;1686914;83;45437;-57
2022/06/13 11:47:02;;;;;;;3.70;1.00;;;;;;;42.10;17.94;100757.59;1687437;83;25842;-57
2022/06/13 11:49:44;;;;;;;4.60;1.47;;;;;;;42.13;17.36;100756.33;1693753;82;25930;-57
2022/06/13 11:53:35;;;;;;;;;;;;;;;42.45;17.45;100750.92;1749664;81;26190;-57
2022/06/13 11:54:56;;;;;;;2.30;1.05;;;;;;;42.29;16.86;100745.13;1742012;81;33382;-57
2022/06/13 11:57:33;;;;;;;11.48;1.50;;;;;;;42.18;17.60;100746.80;1749072;81;28647;-57
2022/06/13 12:00:08;;;;;;;5.70;1.22;;;;;;;42.78;17.42;100737.20;1749383;81;25789;-57
2022/06/13 12:02:56;;;;;;;6.15;1.35;;;;;;;42.69;16.60;100732.25;1751399;81;25672;-57
2022/06/13 12:05:31;;;;;;;2.05;0.80;;;;;;;42.07;16.93;100747.83;1749061;80;26086;-56
2022/06/13 12:08:19;;;;;;;4.42;0.95;;;;;;;41.87;17.05;100736.84;1748995;81;25492;-57
2022/06/13 12:11:06;;;;;;;5.10;1.10;;;;;;;41.69;17.08;100737.06;1749474;81;27511;-57
2022/06/13 12:13:41;;;;;;;3.92;1.05;;;;;;;41.73;17.40;100735.20;1748313;81;25708;-57
2022/06/13 12:16:28;;;;;;;2.72;0.80;;;;;;;42.15;16.54;100729.94;1749499;81;25756;-57
2022/06/13 12:19:19;;;;;;;6.53;1.05;;;;;;;41.19;16.96;100727.59;1736333;81;26136;-58
2022/06/13 12:22:09;;;;;;;5.97;1.10;;;;;;;40.00;17.79;100725.68;1759207;81;25483;-57
2022/06/13 12:25:06;;;;;;;1.55;0.80;;;;;;;40.02;18.23;100728.99;1753678;81;27417;-57
2022/06/13 12:27:54;;;;;;;3.77;1.20;;;;;;;40.68;17.86;100718.63;1737654;81;25850;-57
2022/06/13 12:30:53;;;;;;;4.25;1.10;;;;;;;41.73;17.75;100716.84;1731369;80;25829;-57
2022/06/13 12:33:40;;;;;;;4.67;1.27;;;;;;;42.78;16.63;100707.52;1730330;80;26143;-57